Time;durP1;ratioP1;P1;durP2;ratioP2;P2;SDS_P1;SDS_P2;PMS_P1;PMS_P2;Temp;Humidity;BMP_temperature;BMP_pressure;BME280_temperature;BME280_humidity;BME280_pressure;Samples;Min_cycle;Max_cycle;Signal;HPM_P1;HPM_P2
2022/05/16 00:02:06;;;;;;;;;;;;;;;;;;5076399;28;28447;-86
2022/05/16 00:04:31;;;;;;;;;;;;;;;;;;5076152;28;28503;-86
2022/05/16 00:06:56;;;;;;;;;;;;;;;;;;5076269;28;28323;-85
2022/05/16 00:09:21;;;;;;;;;;;;;;;;;;5076149;28;28356;-86
2022/05/16 00:11:46;;;;;;;;;;;;;;;;;;5076569;28;28571;-85
2022/05/16 00:14:11;;;;;;;;;;;;;;;;;;5076024;28;28893;-85
2022/05/16 00:16:39;;;;;;;;;;;;;;;;;;5076442;28;28420;-85
2022/05/16 00:19:04;;;;;;;;;;;;;;;;;;5076294;28;28386;-85
2022/05/16 00:21:29;;;;;;;;;;;;;;;;;;5076067;28;28368;-86
2022/05/16 00:23:54;;;;;;;;;;;;;;;;;;5075987;28;28479;-86
2022/05/16 00:26:19;;;;;;;;;;;;;;;;;;5075896;28;28269;-86
2022/05/16 00:28:44;;;;;;;;;;;;;;;;;;5076056;28;28273;-85
2022/05/16 00:31:10;;;;;;;;;;;;;;;;;;5076346;28;28303;-86
2022/05/16 00:33:35;;;;;;;;;;;;;;;;;;5075854;28;29463;-86
2022/05/16 00:36:00;;;;;;;;;;;;;;;;;;5075901;28;28372;-85
2022/05/16 00:38:25;;;;;;;;;;;;;;;;;;5075991;28;28246;-86
2022/05/16 00:40:50;;;;;;;;;;;;;;;;;;5075983;28;28308;-85
2022/05/16 00:43:15;;;;;;;;;;;;;;;;;;5075720;28;28363;-85
2022/05/16 00:45:40;;;;;;;;;;;;;;;;;;5075706;28;28442;-85
2022/05/16 00:48:05;;;;;;;;;;;;;;;;;;5075922;28;28537;-85
2022/05/16 00:50:31;;;;;;;;;;;;;;;;;;5075684;28;28237;-85
2022/05/16 00:52:56;;;;;;;;;;;;;;;;;;5075615;28;28426;-85
2022/05/16 00:55:21;;;;;;;;;;;;;;;;;;5075559;28;28300;-85
2022/05/16 00:57:46;;;;;;;;;;;;;;;;;;5075418;28;28224;-85
2022/05/16 01:00:11;;;;;;;;;;;;;;;;;;5075611;28;28253;-86
2022/05/16 01:05:20;;;;;;;;;;;;;;;;;;5075552;28;28367;-86
2022/05/16 01:07:45;;;;;;;;;;;;;;;;;;5075411;28;28383;-86
2022/05/16 01:10:11;;;;;;;;;;;;;;;;;;5075525;28;28774;-86
2022/05/16 01:12:36;;;;;;;;;;;;;;;;;;5075239;28;28410;-86
2022/05/16 01:15:01;;;;;;;;;;;;;;;;;;5075420;28;28290;-86
2022/05/16 01:17:29;;;;;;;;;;;;;;;;;;5075301;28;28309;-85
2022/05/16 01:19:56;;;;;;;;;;;;;;;;;;5075675;28;28499;-86
2022/05/16 01:22:21;;;;;;;;;;;;;;;;;;5074920;28;29115;-86
2022/05/16 01:24:47;;;;;;;;;;;;;;;;;;5075386;28;28408;-86
2022/05/16 01:27:12;;;;;;;;;;;;;;;;;;5074643;28;28807;-87
2022/05/16 01:29:37;;;;;;;;;;;;;;;;;;5075370;28;28382;-84
2022/05/16 01:32:02;;;;;;;;;;;;;;;;;;5056893;28;30643;-84
2022/05/16 01:34:27;;;;;;;;;;;;;;;;;;5075065;28;28347;-84
2022/05/16 01:36:52;;;;;;;;;;;;;;;;;;5075161;28;28769;-83
2022/05/16 01:39:18;;;;;;;;;;;;;;;;;;5074961;28;28566;-84
2022/05/16 01:41:43;;;;;;;;;;;;;;;;;;5074914;28;28483;-83
2022/05/16 01:44:08;;;;;;;;;;;;;;;;;;5075095;28;28349;-86
2022/05/16 01:46:33;;;;;;;;;;;;;;;;;;5074982;28;28332;-86
2022/05/16 01:48:59;;;;;;;;;;;;;;;;;;5075285;28;28257;-86
2022/05/16 01:51:24;;;;;;;;;;;;;;;;;;5074751;28;28250;-86
2022/05/16 01:53:49;;;;;;;;;;;;;;;;;;5074644;28;28397;-86
2022/05/16 01:56:14;;;;;;;;;;;;;;;;;;5074984;28;28501;-86
2022/05/16 01:58:41;;;;;;;;;;;;;;;;;;5074875;28;28389;-86
2022/05/16 02:01:06;;;;;;;;;;;;;;;;;;5074488;28;28486;-86
2022/05/16 02:03:31;;;;;;;;;;;;;;;;;;5074822;28;28443;-86
2022/05/16 02:05:56;;;;;;;;;;;;;;;;;;5074485;28;28404;-86
2022/05/16 02:08:24;;;;;;;;;;;;;;;;;;5074842;28;28490;-87
2022/05/16 02:10:49;;;;;;;;;;;;;;;;;;5074575;28;28495;-85
2022/05/16 02:13:14;;;;;;;;;;;;;;;;;;5074866;28;28391;-85
2022/05/16 02:15:39;;;;;;;;;;;;;;;;;;5074516;28;28331;-85
2022/05/16 02:18:05;;;;;;;;;;;;;;;;;;5074802;28;28371;-86
2022/05/16 02:20:30;;;;;;;;;;;;;;;;;;5074701;28;29326;-86
2022/05/16 02:25:41;;;;;;;;;;;;;;;;;;5074501;28;28443;-87
2022/05/16 02:28:06;;;;;;;;;;;;;;;;;;5074824;28;27828;-86
2022/05/16 02:30:31;;;;;;;;;;;;;;;;;;5074289;28;29520;-86
2022/05/16 02:32:57;;;;;;;;;;;;;;;;;;5074446;28;28591;-86
2022/05/16 02:35:22;;;;;;;;;;;;;;;;;;5074414;28;28566;-86
2022/05/16 02:37:47;;;;;;;;;;;;;;;;;;5074741;28;28325;-86
2022/05/16 02:40:12;;;;;;;;;;;;;;;;;;5077885;28;29665;-88
2022/05/16 02:42:37;;;;;;;;;;;;;;;;;;5077727;28;28365;-85
2022/05/16 02:45:03;;;;;;;;;;;;;;;;;;5077844;28;28555;-85
2022/05/16 02:47:28;;;;;;;;;;;;;;;;;;5077742;28;28558;-86
2022/05/16 02:49:53;;;;;;;;;;;;;;;;;;5077594;28;29450;-85
2022/05/16 02:52:18;;;;;;;;;;;;;;;;;;5059269;28;28321;-85
2022/05/16 02:54:43;;;;;;;;;;;;;;;;;;5077495;28;28324;-84
2022/05/16 02:57:08;;;;;;;;;;;;;;;;;;5077851;28;28245;-85
2022/05/16 02:59:33;;;;;;;;;;;;;;;;;;5077132;28;28420;-85
2022/05/16 03:01:59;;;;;;;;;;;;;;;;;;5077289;28;28486;-85
2022/05/16 03:04:27;;;;;;;;;;;;;;;;;;5077677;28;28245;-85
2022/05/16 03:06:52;;;;;;;;;;;;;;;;;;5077575;28;28371;-85
2022/05/16 03:09:17;;;;;;;;;;;;;;;;;;5077129;28;29487;-86
2022/05/16 03:11:43;;;;;;;;;;;;;;;;;;5077048;28;28490;-84
2022/05/16 03:14:08;;;;;;;;;;;;;;;;;;5077465;28;28551;-84
2022/05/16 03:16:35;;;;;;;;;;;;;;;;;;5077362;28;28403;-85
2022/05/16 03:19:00;;;;;;;;;;;;;;;;;;5077029;28;28713;-85
2022/05/16 03:21:25;;;;;;;;;;;;;;;;;;5077106;28;28406;-86
2022/05/16 03:23:52;;;;;;;;;;;;;;;;;;5076808;28;28374;-85
2022/05/16 03:26:17;;;;;;;;;;;;;;;;;;5077208;28;28515;-85
2022/05/16 03:28:42;;;;;;;;;;;;;;;;;;5077150;28;28412;-85
2022/05/16 03:31:07;;;;;;;;;;;;;;;;;;5076936;28;28649;-85
2022/05/16 03:33:32;;;;;;;;;;;;;;;;;;5077199;28;28362;-85
2022/05/16 03:35:58;;;;;;;;;;;;;;;;;;5076928;28;28526;-85
2022/05/16 03:41:06;;;;;;;;;;;;;;;;;;5076852;28;28300;-85
2022/05/16 03:43:32;;;;;;;;;;;;;;;;;;5077004;28;28280;-86
2022/05/16 03:45:57;;;;;;;;;;;;;;;;;;5076714;28;28434;-85
2022/05/16 03:48:22;;;;;;;;;;;;;;;;;;5076487;28;28447;-84
2022/05/16 03:50:47;;;;;;;;;;;;;;;;;;5076536;28;28435;-85
2022/05/16 03:53:12;;;;;;;;;;;;;;;;;;5076863;28;28344;-86
2022/05/16 03:55:37;;;;;;;;;;;;;;;;;;5076519;28;28521;-86
2022/05/16 03:58:03;;;;;;;;;;;;;;;;;;5076416;28;29496;-85
2022/05/16 04:00:28;;;;;;;;;;;;;;;;;;5076383;28;28434;-85
2022/05/16 04:02:53;;;;;;;;;;;;;;;;;;5076387;28;28364;-85
2022/05/16 04:05:23;;;;;;;;;;;;;;;;;;5076579;28;28513;-85
2022/05/16 04:07:49;;;;;;;;;;;;;;;;;;5076556;28;28570;-85
2022/05/16 04:10:14;;;;;;;;;;;;;;;;;;5076250;28;28490;-85
2022/05/16 04:12:39;;;;;;;;;;;;;;;;;;5076314;28;28394;-85
2022/05/16 04:15:04;;;;;;;;;;;;;;;;;;5076189;28;28529;-85
2022/05/16 04:17:30;;;;;;;;;;;;;;;;;;5076347;28;29523;-85
2022/05/16 04:19:55;;;;;;;;;;;;;;;;;;5076272;28;28355;-85
2022/05/16 04:22:20;;;;;;;;;;;;;;;;;;5076115;28;28339;-85
2022/05/16 04:24:45;;;;;;;;;;;;;;;;;;5076368;28;28546;-85
2022/05/16 04:27:10;;;;;;;;;;;;;;;;;;5076017;28;28577;-85
2022/05/16 04:29:35;;;;;;;;;;;;;;;;;;5076045;28;28387;-85
2022/05/16 04:32:00;;;;;;;;;;;;;;;;;;5075955;28;28305;-85
2022/05/16 04:34:25;;;;;;;;;;;;;;;;;;5076176;28;28325;-85
2022/05/16 04:36:50;;;;;;;;;;;;;;;;;;5075802;28;28403;-85
2022/05/16 04:39:16;;;;;;;;;;;;;;;;;;5074797;28;28461;-85
2022/05/16 04:44:25;;;;;;;;;;;;;;;;;;5075991;28;28442;-85
2022/05/16 04:46:50;;;;;;;;;;;;;;;;;;5075373;28;29583;-85
2022/05/16 04:49:15;;;;;;;;;;;;;;;;;;5074550;28;28482;-85
2022/05/16 04:51:40;;;;;;;;;;;;;;;;;;5075254;28;28393;-84
2022/05/16 04:54:05;;;;;;;;;;;;;;;;;;5074767;28;28482;-84
2022/05/16 04:56:30;;;;;;;;;;;;;;;;;;5075132;28;28659;-84
2022/05/16 04:58:55;;;;;;;;;;;;;;;;;;5075198;28;28474;-87
2022/05/16 05:01:20;;;;;;;;;;;;;;;;;;5074360;28;28525;-89
2022/05/16 05:03:46;;;;;;;;;;;;;;;;;;5075787;28;27889;-88
2022/05/16 05:06:11;;;;;;;;;;;;;;;;;;5075426;28;28608;-92
2022/05/16 05:08:36;;;;;;;;;;;;;;;;;;5075288;28;28465;-85
2022/05/16 05:16:29;;;;;;;;;;;;;;;;;;5075270;28;28881;-88
2022/05/16 05:18:54;;;;;;;;;;;;;;;;;;5075234;28;28422;-87
2022/05/16 05:21:20;;;;;;;;;;;;;;;;;;5075228;28;28878;-89
2022/05/16 05:23:45;;;;;;;;;;;;;;;;;;5075387;28;28494;-87
2022/05/16 05:26:10;;;;;;;;;;;;;;;;;;5075023;28;28504;-87
2022/05/16 05:28:35;;;;;;;;;;;;;;;;;;5074413;28;28582;-86
2022/05/16 05:31:00;;;;;;;;;;;;;;;;;;5074930;28;28286;-85
2022/05/16 05:33:25;;;;;;;;;;;;;;;;;;5075301;28;28332;-86
2022/05/16 05:35:50;;;;;;;;;;;;;;;;;;5075258;28;28566;-85
2022/05/16 05:38:15;;;;;;;;;;;;;;;;;;5074995;28;28458;-85
2022/05/16 05:40:40;;;;;;;;;;;;;;;;;;5074889;28;28883;-85
2022/05/16 05:43:06;;;;;;;;;;;;;;;;;;5075458;28;28375;-85
2022/05/16 05:45:31;;;;;;;;;;;;;;;;;;5075135;28;29430;-85
2022/05/16 05:47:56;;;;;;;;;;;;;;;;;;5074959;28;28406;-85
2022/05/16 05:50:21;;;;;;;;;;;;;;;;;;5074606;28;28461;-86
2022/05/16 05:52:46;;;;;;;;;;;;;;;;;;5074715;28;28009;-85
2022/05/16 05:55:11;;;;;;;;;;;;;;;;;;5074823;28;28914;-88
2022/05/16 05:57:36;;;;;;;;;;;;;;;;;;5074891;28;28399;-88
2022/05/16 06:00:02;;;;;;;;;;;;;;;;;;5074961;28;28557;-96
2022/05/16 06:02:28;;;;;;;;;;;;;;;;;;5056790;28;28579;-90
2022/05/16 06:04:53;;;;;;;;;;;;;;;;;;5073984;28;28482;-91
2022/05/16 06:07:18;;;;;;;;;;;;;;;;;;5074461;28;28320;-88
2022/05/16 06:09:43;;;;;;;;;;;;;;;;;;5074686;28;28314;-88
2022/05/16 06:12:08;;;;;;;;;;;;;;;;;;5075676;28;28435;-86
2022/05/16 06:14:33;;;;;;;;;;;;;;;;;;5059323;28;28475;-89
2022/05/16 06:16:58;;;;;;;;;;;;;;;;;;5078330;28;28245;-88
2022/05/16 06:19:23;;;;;;;;;;;;;;;;;;5077952;28;28334;-85
2022/05/16 06:21:49;;;;;;;;;;;;;;;;;;5077996;28;28429;-87
2022/05/16 06:26:58;;;;;;;;;;;;;;;;;;5077550;28;28537;-93
2022/05/16 06:29:23;;;;;;;;;;;;;;;;;;5077737;28;28578;-91
2022/05/16 06:31:48;;;;;;;;;;;;;;;;;;5059893;28;28435;-87
2022/05/16 06:34:13;;;;;;;;;;;;;;;;;;5077539;28;28462;-88
2022/05/16 06:36:38;;;;;;;;;;;;;;;;;;5077945;28;28449;-91
2022/05/16 06:39:03;;;;;;;;;;;;;;;;;;5078737;28;28332;-92
2022/05/16 06:41:28;;;;;;;;;;;;;;;;;;5077728;28;28579;-89
2022/05/16 06:43:53;;;;;;;;;;;;;;;;;;5078050;28;28574;-88
2022/05/16 06:46:18;;;;;;;;;;;;;;;;;;5077247;28;28397;-90
2022/05/16 06:48:44;;;;;;;;;;;;;;;;;;5075429;28;28284;-89
2022/05/16 06:51:09;;;;;;;;;;;;;;;;;;5077467;28;28311;-86
2022/05/16 06:53:34;;;;;;;;;;;;;;;;;;5077111;28;28302;-91
2022/05/16 06:56:00;;;;;;;;;;;;;;;;;;5076541;28;28520;-87
2022/05/16 06:58:25;;;;;;;;;;;;;;;;;;5077228;28;28450;-87
2022/05/16 07:00:50;;;;;;;;;;;;;;;;;;5077298;28;28268;-88
2022/05/16 07:03:15;;;;;;;;;;;;;;;;;;5077056;28;28492;-88
2022/05/16 07:05:40;;;;;;;;;;;;;;;;;;5077085;28;28343;-87
2022/05/16 07:08:06;;;;;;;;;;;;;;;;;;5076994;28;28534;-87
2022/05/16 07:10:31;;;;;;;;;;;;;;;;;;5077031;28;28246;-86
2022/05/16 07:12:56;;;;;;;;;;;;;;;;;;5076971;28;28553;-87
2022/05/16 07:15:21;;;;;;;;;;;;;;;;;;5076967;28;28439;-87
2022/05/16 07:17:46;;;;;;;;;;;;;;;;;;5066771;28;28344;-86
2022/05/16 07:20:12;;;;;;;;;;;;;;;;;;5059792;28;28504;-87
2022/05/16 07:22:37;;;;;;;;;;;;;;;;;;5058313;28;28600;-87
2022/05/16 07:25:02;;;;;;;;;;;;;;;;;;5076105;28;28357;-85
2022/05/16 07:30:12;;;;;;;;;;;;;;;;;;5070724;28;28372;-87
2022/05/16 07:32:37;;;;;;;;;;;;;;;;;;5076738;28;28494;-87
2022/05/16 07:35:02;;;;;;;;;;;;;;;;;;5076528;28;28395;-90
2022/05/16 07:37:27;;;;;;;;;;;;;;;;;;5077136;28;28375;-88
2022/05/16 07:39:52;;;;;;;;;;;;;;;;;;5077151;28;27828;-90
2022/05/16 07:42:17;;;;;;;;;;;;;;;;;;5058448;28;28736;-87
2022/05/16 07:44:43;;;;;;;;;;;;;;;;;;5076901;28;28299;-87
2022/05/16 07:47:08;;;;;;;;;;;;;;;;;;5076575;28;28228;-90
2022/05/16 07:49:33;;;;;;;;;;;;;;;;;;5076638;28;28378;-86
2022/05/16 07:51:58;;;;;;;;;;;;;;;;;;5076496;28;28496;-86
2022/05/16 07:54:23;;;;;;;;;;;;;;;;;;5076395;28;28496;-86
2022/05/16 07:56:48;;;;;;;;;;;;;;;;;;5076653;28;28434;-86
2022/05/16 07:59:13;;;;;;;;;;;;;;;;;;5076561;28;28466;-86
2022/05/16 08:01:38;;;;;;;;;;;;;;;;;;5076206;28;29346;-85
2022/05/16 08:04:05;;;;;;;;;;;;;;;;;;5076539;28;28367;-86
2022/05/16 08:06:30;;;;;;;;;;;;;;;;;;5075416;28;28395;-88
2022/05/16 08:11:38;;;;;;;;;;;;;;;;;;5076100;28;28416;-89
2022/05/16 08:14:04;;;;;;;;;;;;;;;;;;5059051;28;28467;-87
2022/05/16 08:16:29;;;;;;;;;;;;;;;;;;5076447;28;28443;-88
2022/05/16 08:18:54;;;;;;;;;;;;;;;;;;5076285;28;28628;-87
2022/05/16 08:21:19;;;;;;;;;;;;;;;;;;5076116;28;28800;-85
2022/05/16 08:23:44;;;;;;;;;;;;;;;;;;5076269;28;28380;-85
2022/05/16 08:26:10;;;;;;;;;;;;;;;;;;5076158;28;28361;-84
2022/05/16 08:28:36;;;;;;;;;;;;;;;;;;5076161;28;28313;-84
2022/05/16 08:31:01;;;;;;;;;;;;;;;;;;5075850;28;29158;-85
2022/05/16 08:33:26;;;;;;;;;;;;;;;;;;5075940;28;28319;-85
2022/05/16 08:41:20;;;;;;;;;;;;;;;;;;5053272;28;28504;-85
2022/05/16 08:43:46;;;;;;;;;;;;;;;;;;5053487;28;28508;-85
2022/05/16 08:46:11;;;;;;;;;;;;;;;;;;5053646;28;28442;-85
2022/05/16 08:48:36;;;;;;;;;;;;;;;;;;5053702;28;28480;-85
2022/05/16 08:51:04;;;;;;;;;;;;;;;;;;5053285;28;28538;-85
2022/05/16 08:53:29;;;;;;;;;;;;;;;;;;5053314;28;28309;-86
2022/05/16 08:55:54;;;;;;;;;;;;;;;;;;5044393;28;28305;-84
2022/05/16 08:58:19;;;;;;;;;;;;;;;;;;5065393;28;28348;-85
2022/05/16 09:00:47;;;;;;;;;;;;;;;;;;5070748;28;28373;-84
2022/05/16 09:03:12;;;;;;;;;;;;;;;;;;5053234;28;28449;-84
2022/05/16 09:05:38;;;;;;;;;;;;;;;;;;5053204;28;28520;-84
2022/05/16 09:08:03;;;;;;;;;;;;;;;;;;5053363;28;28569;-85
2022/05/16 09:10:28;;;;;;;;;;;;;;;;;;5053022;28;28368;-85
2022/05/16 09:12:53;;;;;;;;;;;;;;;;;;5055032;28;28426;-86
2022/05/16 09:15:18;;;;;;;;;;;;;;;;;;5061777;28;28352;-85
2022/05/16 09:17:44;;;;;;;;;;;;;;;;;;5075379;28;28329;-85
2022/05/16 09:20:10;;;;;;;;;;;;;;;;;;5075358;28;29400;-85
2022/05/16 09:22:35;;;;;;;;;;;;;;;;;;5074703;28;28471;-84
2022/05/16 09:25:00;;;;;;;;;;;;;;;;;;5075423;28;28344;-85
2022/05/16 09:30:09;;;;;;;;;;;;;;;;;;5075065;28;28920;-86
2022/05/16 09:32:34;;;;;;;;;;;;;;;;;;5075076;28;28494;-86
2022/05/16 09:35:00;;;;;;;;;;;;;;;;;;5075258;28;28362;-82
2022/05/16 09:37:25;;;;;;;;;;;;;;;;;;5075264;28;28589;-84
2022/05/16 09:39:50;;;;;;;;;;;;;;;;;;5074563;28;28609;-85
2022/05/16 09:42:15;;;;;;;;;;;;;;;;;;5074959;28;28431;-83
2022/05/16 09:44:40;;;;;;;;;;;;;;;;;;5076528;28;28498;-84
2022/05/16 09:47:05;;;;;;;;;;;;;;;;;;5096614;28;28374;-92
2022/05/16 09:49:30;;;;;;;;;;;;;;;;;;5098592;27;28668;-84
2022/05/16 09:51:55;;;;;;;;;;;;;;;;;;5098900;28;28441;-83
2022/05/16 09:54:20;;;;;;;;;;;;;;;;;;5089962;28;28434;-83
2022/05/16 09:56:45;;;;;;;;;;;;;;;;;;5079261;28;28858;-83
2022/05/16 09:59:13;;;;;;;;;;;;;;;;;;5087210;28;29403;-86
2022/05/16 10:01:40;;;;;;;;;;;;;;;;;;5098497;28;28356;-86
2022/05/16 10:04:05;;;;;;;;;;;;;;;;;;5088314;28;28399;-87
2022/05/16 10:06:30;;;;;;;;;;;;;;;;;;5098781;27;28466;-85
2022/05/16 10:08:55;;;;;;;;;;;;;;;;;;5096656;27;28433;-85
2022/05/16 10:11:20;;;;;;;;;;;;;;;;;;5086263;28;28292;-85
2022/05/16 10:13:45;;;;;;;;;;;;;;;;;;5081909;28;28387;-87
2022/05/16 10:16:11;;;;;;;;;;;;;;;;;;5078291;28;28237;-87
2022/05/16 10:18:36;;;;;;;;;;;;;;;;;;5081424;28;28463;-87
2022/05/16 10:21:01;;;;;;;;;;;;;;;;;;5096677;28;28348;-84
2022/05/16 10:23:27;;;;;;;;;;;;;;;;;;5098305;28;28324;-84
2022/05/16 10:25:52;;;;;;;;;;;;;;;;;;5094346;28;28467;-81
2022/05/16 10:28:17;;;;;;;;;;;;;;;;;;5077743;28;28328;-84
2022/05/16 10:33:26;;;;;;;;;;;;;;;;;;5087253;27;28506;-85
2022/05/16 10:35:52;;;;;;;;;;;;;;;;;;5077343;28;28574;-85
2022/05/16 10:38:17;;;;;;;;;;;;;;;;;;5089891;28;29240;-86
2022/05/16 10:40:43;;;;;;;;;;;;;;;;;;5077297;28;28463;-85
2022/05/16 10:43:09;;;;;;;;;;;;;;;;;;5094920;28;28240;-86
2022/05/16 10:45:34;;;;;;;;;;;;;;;;;;5097730;28;28391;-86
2022/05/16 10:48:05;;;;;;;;;;;;;;;;;;5097418;28;28509;-85
2022/05/16 10:50:30;;;;;;;;;;;;;;;;;;5097639;27;28553;-86
2022/05/16 10:52:55;;;;;;;;;;;;;;;;;;5097468;27;29110;-85
2022/05/16 10:55:21;;;;;;;;;;;;;;;;;;5076978;28;28327;-85
2022/05/16 10:57:46;;;;;;;;;;;;;;;;;;5088099;28;28407;-85
2022/05/16 11:00:11;;;;;;;;;;;;;;;;;;5076686;28;28509;-85
2022/05/16 11:02:36;;;;;;;;;;;;;;;;;;5082420;28;28475;-85
2022/05/16 11:05:01;;;;;;;;;;;;;;;;;;5097362;27;28347;-85
2022/05/16 11:07:26;;;;;;;;;;;;;;;;;;5094999;27;28594;-85
2022/05/16 11:09:52;;;;;;;;;;;;;;;;;;5076740;28;27992;-85
2022/05/16 11:12:17;;;;;;;;;;;;;;;;;;5076628;28;28399;-85
2022/05/16 11:14:46;;;;;;;;;;;;;;;;;;5080566;28;28822;-85
2022/05/16 11:17:11;;;;;;;;;;;;;;;;;;5093388;27;28526;-86
2022/05/16 11:19:36;;;;;;;;;;;;;;;;;;5097051;28;28329;-86
2022/05/16 11:22:01;;;;;;;;;;;;;;;;;;5097010;28;28453;-86
2022/05/16 11:24:26;;;;;;;;;;;;;;;;;;5096613;28;28431;-86
2022/05/16 11:26:52;;;;;;;;;;;;;;;;;;5096830;28;28466;-86
2022/05/16 11:29:19;;;;;;;;;;;;;;;;;;5096866;27;28521;-86
2022/05/16 11:31:45;;;;;;;;;;;;;;;;;;5096591;27;27845;-86
2022/05/16 11:34:10;;;;;;;;;;;;;;;;;;5096997;28;28385;-86
2022/05/16 11:36:35;;;;;;;;;;;;;;;;;;5093441;28;28538;-86
2022/05/16 11:39:00;;;;;;;;;;;;;;;;;;5076472;28;28807;-86
2022/05/16 11:41:25;;;;;;;;;;;;;;;;;;5076285;28;28256;-86
2022/05/16 11:43:50;;;;;;;;;;;;;;;;;;5076415;28;28237;-86
2022/05/16 11:46:16;;;;;;;;;;;;;;;;;;5091342;28;28429;-85
2022/05/16 11:48:42;;;;;;;;;;;;;;;;;;5094892;27;28533;-85
2022/05/16 11:51:07;;;;;;;;;;;;;;;;;;5096666;28;28475;-85
2022/05/16 11:53:32;;;;;;;;;;;;;;;;;;5089454;28;28451;-86
2022/05/16 12:01:25;;;;;;;;;;;;;;;;;;5035963;28;28476;-85
2022/05/16 12:03:50;;;;;;;;;;;;;;;;;;5035775;28;28799;-85
2022/05/16 12:06:15;;;;;;;;;;;;;;;;;;5035750;28;28522;-86
2022/05/16 12:08:40;;;;;;;;;;;;;;;;;;5035628;28;28407;-85
2022/05/16 12:11:05;;;;;;;;;;;;;;;;;;5038681;28;28400;-86
2022/05/16 12:13:32;;;;;;;;;;;;;;;;;;5055595;28;35850;-86
2022/05/16 12:15:57;;;;;;;;;;;;;;;;;;5055464;28;29639;-86
2022/05/16 12:18:23;;;;;;;;;;;;;;;;;;5055595;28;28416;-86
2022/05/16 12:20:50;;;;;;;;;;;;;;;;;;5044120;28;27827;-86
2022/05/16 12:23:15;;;;;;;;;;;;;;;;;;5035483;28;28487;-86
2022/05/16 12:25:40;;;;;;;;;;;;;;;;;;5035879;28;28576;-85
2022/05/16 12:28:06;;;;;;;;;;;;;;;;;;5035331;28;28565;-85
2022/05/16 12:30:31;;;;;;;;;;;;;;;;;;5040271;28;28489;-86
2022/05/16 12:32:56;;;;;;;;;;;;;;;;;;5055469;28;28509;-85
2022/05/16 12:35:22;;;;;;;;;;;;;;;;;;5055149;28;28574;-86
2022/05/16 12:37:47;;;;;;;;;;;;;;;;;;5055407;28;28493;-86
2022/05/16 12:40:12;;;;;;;;;;;;;;;;;;5055347;28;28456;-87
2022/05/16 12:42:37;;;;;;;;;;;;;;;;;;5055165;28;28478;-86
2022/05/16 12:45:02;;;;;;;;;;;;;;;;;;5051915;28;28436;-86
2022/05/16 12:47:27;;;;;;;;;;;;;;;;;;5035298;28;28444;-86
2022/05/16 12:49:53;;;;;;;;;;;;;;;;;;5055115;28;28408;-87
2022/05/16 12:52:19;;;;;;;;;;;;;;;;;;5053527;28;28471;-88
2022/05/16 12:54:44;;;;;;;;;;;;;;;;;;5054932;28;28519;-87
2022/05/16 12:57:10;;;;;;;;;;;;;;;;;;5050798;28;28382;-87
2022/05/16 12:59:35;;;;;;;;;;;;;;;;;;5050693;28;28532;-88
2022/05/16 13:02:01;;;;;;;;;;;;;;;;;;5089621;28;28340;-87
2022/05/16 13:04:26;;;;;;;;;;;;;;;;;;5087804;28;29104;-87
2022/05/16 13:06:51;;;;;;;;;;;;;;;;;;5095492;28;28253;-88
2022/05/16 13:09:16;;;;;;;;;;;;;;;;;;5076675;28;28490;-87
2022/05/16 13:11:41;;;;;;;;;;;;;;;;;;5075127;28;28415;-87
2022/05/16 13:14:06;;;;;;;;;;;;;;;;;;5074792;28;28294;-87
2022/05/16 13:16:31;;;;;;;;;;;;;;;;;;5074652;28;28478;-86
2022/05/16 13:18:57;;;;;;;;;;;;;;;;;;5075107;28;28335;-86
2022/05/16 13:21:22;;;;;;;;;;;;;;;;;;5073837;28;28372;-83
2022/05/16 13:23:47;;;;;;;;;;;;;;;;;;5074441;28;28491;-84
2022/05/16 13:31:39;;;;;;;;;;;;;;;;;;5082401;28;28598;-85
2022/05/16 13:34:05;;;;;;;;;;;;;;;;;;5095538;28;28426;-86
2022/05/16 13:36:30;;;;;;;;;;;;;;;;;;5076630;28;27868;-85
2022/05/16 13:38:55;;;;;;;;;;;;;;;;;;5094636;27;28291;-85
2022/05/16 13:41:21;;;;;;;;;;;;;;;;;;5092205;28;28485;-85
2022/05/16 13:43:46;;;;;;;;;;;;;;;;;;5078386;28;28509;-85
2022/05/16 13:46:11;;;;;;;;;;;;;;;;;;5095584;28;28275;-85
2022/05/16 13:48:36;;;;;;;;;;;;;;;;;;5094966;28;28231;-85
2022/05/16 13:51:01;;;;;;;;;;;;;;;;;;5082791;28;28888;-83
2022/05/16 13:53:26;;;;;;;;;;;;;;;;;;5075116;28;28520;-83
2022/05/16 13:55:52;;;;;;;;;;;;;;;;;;5074966;28;28436;-83
2022/05/16 13:58:17;;;;;;;;;;;;;;;;;;5074994;28;28332;-83
2022/05/16 14:00:42;;;;;;;;;;;;;;;;;;5074733;28;28867;-83
2022/05/16 14:03:09;;;;;;;;;;;;;;;;;;5074513;28;28439;-83
2022/05/16 14:05:34;;;;;;;;;;;;;;;;;;5074684;28;28388;-83
2022/05/16 14:07:59;;;;;;;;;;;;;;;;;;5074684;28;28462;-83
2022/05/16 14:10:24;;;;;;;;;;;;;;;;;;5074992;28;28324;-83
2022/05/16 14:12:50;;;;;;;;;;;;;;;;;;5074408;28;29201;-83
2022/05/16 14:15:15;;;;;;;;;;;;;;;;;;5075850;28;28513;-83
2022/05/16 14:17:40;;;;;;;;;;;;;;;;;;5085140;28;28462;-84
2022/05/16 14:20:06;;;;;;;;;;;;;;;;;;5074193;28;28416;-85
2022/05/16 14:22:31;;;;;;;;;;;;;;;;;;5086710;28;28496;-84
2022/05/16 14:24:57;;;;;;;;;;;;;;;;;;5094398;27;28451;-84
2022/05/16 14:27:22;;;;;;;;;;;;;;;;;;5084121;28;28533;-84
2022/05/16 14:29:47;;;;;;;;;;;;;;;;;;5074154;28;28409;-84
2022/05/16 14:32:13;;;;;;;;;;;;;;;;;;5073853;28;28598;-84
2022/05/16 14:34:38;;;;;;;;;;;;;;;;;;5077289;28;28356;-84
2022/05/16 14:37:04;;;;;;;;;;;;;;;;;;5083546;28;28380;-84
2022/05/16 14:39:30;;;;;;;;;;;;;;;;;;5097548;28;28255;-84
2022/05/16 14:41:55;;;;;;;;;;;;;;;;;;5097556;28;28449;-84
2022/05/16 14:44:20;;;;;;;;;;;;;;;;;;5097398;28;28473;-84
2022/05/16 14:46:50;;;;;;;;;;;;;;;;;;5094189;27;28223;-84
2022/05/16 14:49:16;;;;;;;;;;;;;;;;;;5097647;28;28461;-84
2022/05/16 14:51:41;;;;;;;;;;;;;;;;;;5097531;27;28843;-84
2022/05/16 14:54:06;;;;;;;;;;;;;;;;;;5089176;28;28517;-84
2022/05/16 14:56:31;;;;;;;;;;;;;;;;;;5066558;28;28548;-91
2022/05/16 14:58:56;;;;;;;;;;;;;;;;;;5063636;28;27852;-88
2022/05/16 15:04:16;;;;;;;;;;;;;;;;;;5031100;28;28460;-83
2022/05/16 15:06:41;;;;;;;;;;;;;;;;;;5017749;28;28463;-87
2022/05/16 15:09:06;;;;;;;;;;;;;;;;;;5015213;28;28494;-83
2022/05/16 15:11:31;;;;;;;;;;;;;;;;;;5023728;28;28568;-85
2022/05/16 15:13:56;;;;;;;;;;;;;;;;;;5029410;28;28951;-85
2022/05/16 15:16:21;;;;;;;;;;;;;;;;;;5022145;28;28416;-86
2022/05/16 15:18:47;;;;;;;;;;;;;;;;;;5029203;28;28623;-86
2022/05/16 15:21:12;;;;;;;;;;;;;;;;;;5022203;28;28627;-85
2022/05/16 15:23:37;;;;;;;;;;;;;;;;;;5017466;28;28496;-85
2022/05/16 15:26:02;;;;;;;;;;;;;;;;;;5033075;28;28481;-85
2022/05/16 15:28:27;;;;;;;;;;;;;;;;;;5014532;28;28711;-85
2022/05/16 15:30:52;;;;;;;;;;;;;;;;;;5028147;28;29813;-83
2022/05/16 15:33:18;;;;;;;;;;;;;;;;;;5025383;28;28106;-86
2022/05/16 15:35:43;;;;;;;;;;;;;;;;;;5014263;28;28293;-86
2022/05/16 15:38:09;;;;;;;;;;;;;;;;;;5021313;28;28490;-85
2022/05/16 15:40:34;;;;;;;;;;;;;;;;;;5048768;28;29448;-86
2022/05/16 15:42:59;;;;;;;;;;;;;;;;;;5075976;28;28246;-86
2022/05/16 15:45:24;;;;;;;;;;;;;;;;;;5075468;28;28748;-85
2022/05/16 15:47:49;;;;;;;;;;;;;;;;;;5076295;28;27823;-85
2022/05/16 15:50:16;;;;;;;;;;;;;;;;;;5075431;28;28435;-85
2022/05/16 15:52:43;;;;;;;;;;;;;;;;;;5095060;28;28460;-86
2022/05/16 15:55:09;;;;;;;;;;;;;;;;;;5094624;28;29086;-85
2022/05/16 15:57:34;;;;;;;;;;;;;;;;;;5096575;28;28474;-85
2022/05/16 16:00:04;;;;;;;;;;;;;;;;;;5096020;28;28403;-86
2022/05/16 16:02:29;;;;;;;;;;;;;;;;;;5096307;27;28592;-86
2022/05/16 16:10:21;;;;;;;;;;;;;;;;;;5077112;28;28522;-86
2022/05/16 16:12:46;;;;;;;;;;;;;;;;;;5095639;28;28892;-86
2022/05/16 16:15:13;;;;;;;;;;;;;;;;;;5089673;27;28468;-86
2022/05/16 16:17:39;;;;;;;;;;;;;;;;;;5095936;28;28497;-86
2022/05/16 16:20:04;;;;;;;;;;;;;;;;;;5088469;28;28549;-86
2022/05/16 16:22:29;;;;;;;;;;;;;;;;;;5088343;28;28388;-86
2022/05/16 16:24:54;;;;;;;;;;;;;;;;;;5096283;27;28383;-86
2022/05/16 16:27:20;;;;;;;;;;;;;;;;;;5094088;28;28415;-86
2022/05/16 16:29:45;;;;;;;;;;;;;;;;;;5077565;28;29131;-85
2022/05/16 16:32:10;;;;;;;;;;;;;;;;;;5084585;28;28394;-86
2022/05/16 16:34:35;;;;;;;;;;;;;;;;;;5083556;28;28393;-92
2022/05/16 16:37:00;;;;;;;;;;;;;;;;;;5067792;28;28451;-83
2022/05/16 16:39:27;;;;;;;;;;;;;;;;;;5075423;28;28462;-86
2022/05/16 16:41:52;;;;;;;;;;;;;;;;;;5075339;28;28390;-88
2022/05/16 16:44:17;;;;;;;;;;;;;;;;;;5078423;28;28499;-89
2022/05/16 16:46:42;;;;;;;;;;;;;;;;;;5080225;28;28486;-89
2022/05/16 16:49:07;;;;;;;;;;;;;;;;;;5091584;28;29774;-88
2022/05/16 16:59:44;;;;;;;;;;;;;;;;;;5095117;27;28841;-87
2022/05/16 17:02:09;;;;;;;;;;;;;;;;;;5087979;28;28790;-87
2022/05/16 17:04:34;;;;;;;;;;;;;;;;;;5092923;28;28599;-86
2022/05/16 17:07:00;;;;;;;;;;;;;;;;;;5095903;28;28396;-88
2022/05/16 17:09:25;;;;;;;;;;;;;;;;;;5088948;27;29318;-88
2022/05/16 17:11:50;;;;;;;;;;;;;;;;;;5077772;28;28465;-88
2022/05/16 17:14:15;;;;;;;;;;;;;;;;;;5076073;28;28487;-88
2022/05/16 17:16:40;;;;;;;;;;;;;;;;;;5077404;28;28423;-89
2022/05/16 17:19:05;;;;;;;;;;;;;;;;;;5075098;28;28371;-88
2022/05/16 17:21:30;;;;;;;;;;;;;;;;;;5074785;28;28463;-88
2022/05/16 17:23:55;;;;;;;;;;;;;;;;;;5084293;28;28375;-88
2022/05/16 17:26:22;;;;;;;;;;;;;;;;;;5079437;28;28404;-88
2022/05/16 17:28:50;;;;;;;;;;;;;;;;;;5073442;28;28797;-86
2022/05/16 17:31:17;;;;;;;;;;;;;;;;;;5074147;28;28951;-84
2022/05/16 17:33:42;;;;;;;;;;;;;;;;;;5073426;28;28501;-84
2022/05/16 17:36:07;;;;;;;;;;;;;;;;;;5073404;28;28426;-84